sensor_id;sensor_type;location;lat;lon;timestamp;pressure;altitude;pressure_sealevel;temperature;humidity
69784;BME280;57054;51.978;4.498;2022-11-20T00:02:10;101423.09;;;1.60;92.84
69784;BME280;57054;51.978;4.498;2022-11-20T00:04:35;101438.56;;;1.58;92.82
69784;BME280;57054;51.978;4.498;2022-11-20T00:07:00;101439.44;;;1.57;92.82
69784;BME280;57054;51.978;4.498;2022-11-20T00:09:26;101440.28;;;1.56;92.80
69784;BME280;57054;51.978;4.498;2022-11-20T00:11:51;101439.44;;;1.56;92.90
69784;BME280;57054;51.978;4.498;2022-11-20T00:14:16;101430.81;;;1.55;92.89
69784;BME280;57054;51.978;4.498;2022-11-20T00:16:42;101423.94;;;1.54;93.00
69784;BME280;57054;51.978;4.498;2022-11-20T00:19:07;101420.47;;;1.52;92.92
69784;BME280;57054;51.978;4.498;2022-11-20T00:21:32;101410.13;;;1.50;92.86
69784;BME280;57054;51.978;4.498;2022-11-20T00:23:58;101410.13;;;1.49;92.91
69784;BME280;57054;51.978;4.498;2022-11-20T00:26:24;101417.00;;;1.47;92.82
69784;BME280;57054;51.978;4.498;2022-11-20T00:28:53;101421.31;;;1.46;92.86
69784;BME280;57054;51.978;4.498;2022-11-20T00:31:19;101420.44;;;1.44;92.81
69784;BME280;57054;51.978;4.498;2022-11-20T00:33:44;101420.41;;;1.43;92.85
69784;BME280;57054;51.978;4.498;2022-11-20T00:36:20;101414.41;;;1.42;92.90
69784;BME280;57054;51.978;4.498;2022-11-20T00:38:45;101413.53;;;1.40;92.96
69784;BME280;57054;51.978;4.498;2022-11-20T00:41:13;101406.63;;;1.39;92.83
69784;BME280;57054;51.978;4.498;2022-11-20T00:43:39;101396.28;;;1.38;92.75
69784;BME280;57054;51.978;4.498;2022-11-20T00:46:05;101399.72;;;1.35;92.83
69784;BME280;57054;51.978;4.498;2022-11-20T00:48:31;101398.88;;;1.33;92.83
69784;BME280;57054;51.978;4.498;2022-11-20T00:50:56;101408.31;;;1.32;92.76
69784;BME280;57054;51.978;4.498;2022-11-20T00:53:22;101407.44;;;1.32;92.97
69784;BME280;57054;51.978;4.498;2022-11-20T00:58:19;101408.28;;;1.28;93.00
69784;BME280;57054;51.978;4.498;2022-11-20T01:00:44;101405.72;;;1.28;93.02
69784;BME280;57054;51.978;4.498;2022-11-20T01:03:10;101407.41;;;1.26;92.89
69784;BME280;57054;51.978;4.498;2022-11-20T01:05:35;101411.69;;;1.25;92.92
69784;BME280;57054;51.978;4.498;2022-11-20T01:08:01;101413.41;;;1.23;93.18
69784;BME280;57054;51.978;4.498;2022-11-20T01:10:26;101417.72;;;1.23;93.17
69784;BME280;57054;51.978;4.498;2022-11-20T01:12:51;101422.84;;;1.21;93.19
69784;BME280;57054;51.978;4.498;2022-11-20T01:15:36;101418.56;;;1.20;93.16
69784;BME280;57054;51.978;4.498;2022-11-20T01:18:02;101398.75;;;1.18;92.92
69784;BME280;57054;51.978;4.498;2022-11-20T01:20:27;101394.44;;;1.15;92.92
69784;BME280;57054;51.978;4.498;2022-11-20T01:22:52;101386.66;;;1.12;92.76
69784;BME280;57054;51.978;4.498;2022-11-20T01:25:17;101385.81;;;1.11;92.79
69784;BME280;57054;51.978;4.498;2022-11-20T01:27:43;101398.69;;;1.10;93.04
69784;BME280;57054;51.978;4.498;2022-11-20T01:30:08;101405.59;;;1.09;93.10
69784;BME280;57054;51.978;4.498;2022-11-20T01:32:33;101400.44;;;1.09;93.12
69784;BME280;57054;51.978;4.498;2022-11-20T01:34:58;101397.81;;;1.08;93.14
69784;BME280;57054;51.978;4.498;2022-11-20T01:37:24;101404.69;;;1.07;93.18
69784;BME280;57054;51.978;4.498;2022-11-20T01:39:49;101400.38;;;1.06;93.15
69784;BME280;57054;51.978;4.498;2022-11-20T01:42:14;101393.50;;;1.04;93.11
69784;BME280;57054;51.978;4.498;2022-11-20T01:44:59;101390.03;;;1.02;93.14
69784;BME280;57054;51.978;4.498;2022-11-20T01:47:30;101391.75;;;1.01;93.03
69784;BME280;57054;51.978;4.498;2022-11-20T01:50:05;101394.31;;;1.00;93.04
69784;BME280;57054;51.978;4.498;2022-11-20T01:52:34;101387.44;;;0.99;93.05
69784;BME280;57054;51.978;4.498;2022-11-20T01:55:03;101382.25;;;0.97;93.13
69784;BME280;57054;51.978;4.498;2022-11-20T01:57:30;101388.25;;;0.96;93.10
69784;BME280;57054;51.978;4.498;2022-11-20T02:00:02;101388.25;;;0.94;93.03
69784;BME280;57054;51.978;4.498;2022-11-20T02:02:32;101389.09;;;0.92;93.06
69784;BME280;57054;51.978;4.498;2022-11-20T02:07:58;101389.94;;;0.89;93.03
69784;BME280;57054;51.978;4.498;2022-11-20T02:10:26;101389.06;;;0.89;93.24
69784;BME280;57054;51.978;4.498;2022-11-20T02:12:52;101395.06;;;0.86;93.14
69784;BME280;57054;51.978;4.498;2022-11-20T02:15:36;101392.47;;;0.85;93.15
69784;BME280;57054;51.978;4.498;2022-11-20T02:18:01;101388.19;;;0.84;93.23
69784;BME280;57054;51.978;4.498;2022-11-20T02:20:27;101388.16;;;0.82;93.28
69784;BME280;57054;51.978;4.498;2022-11-20T02:22:54;101384.72;;;0.82;93.19
69784;BME280;57054;51.978;4.498;2022-11-20T02:25:22;101381.28;;;0.81;93.20
69784;BME280;57054;51.978;4.498;2022-11-20T02:27:48;101376.09;;;0.80;93.26
69784;BME280;57054;51.978;4.498;2022-11-20T02:30:16;101376.09;;;0.78;93.33
69784;BME280;57054;51.978;4.498;2022-11-20T02:32:42;101376.09;;;0.76;93.47
69784;BME280;57054;51.978;4.498;2022-11-20T02:37:36;101370.03;;;0.74;93.46
69784;BME280;57054;51.978;4.498;2022-11-20T02:40:03;101375.19;;;0.74;93.67
69784;BME280;57054;51.978;4.498;2022-11-20T02:42:30;101365.72;;;0.72;93.62
69784;BME280;57054;51.978;4.498;2022-11-20T02:44:55;101364.00;;;0.72;93.67
69784;BME280;57054;51.978;4.498;2022-11-20T02:47:20;101363.16;;;0.72;93.84
69784;BME280;57054;51.978;4.498;2022-11-20T02:49:46;101363.13;;;0.70;93.85
69784;BME280;57054;51.978;4.498;2022-11-20T02:52:11;101357.13;;;0.70;93.88
69784;BME280;57054;51.978;4.498;2022-11-20T02:54:36;101363.13;;;0.70;94.08
69784;BME280;57054;51.978;4.498;2022-11-20T02:57:03;101361.41;;;0.68;93.95
69784;BME280;57054;51.978;4.498;2022-11-20T02:59:28;101357.09;;;0.68;94.22
69784;BME280;57054;51.978;4.498;2022-11-20T03:01:54;101354.50;;;0.67;94.20
69784;BME280;57054;51.978;4.498;2022-11-20T03:04:19;101353.69;;;0.68;94.38
69784;BME280;57054;51.978;4.498;2022-11-20T03:06:44;101351.94;;;0.67;94.43
69784;BME280;57054;51.978;4.498;2022-11-20T03:09:11;101339.91;;;0.66;94.37
69784;BME280;57054;51.978;4.498;2022-11-20T03:11:37;101327.00;;;0.64;94.46
69784;BME280;57054;51.978;4.498;2022-11-20T03:14:03;101325.25;;;0.63;94.50
69784;BME280;57054;51.978;4.498;2022-11-20T03:16:28;101328.72;;;0.62;94.64
69784;BME280;57054;51.978;4.498;2022-11-20T03:18:53;101327.81;;;0.62;94.76
69784;BME280;57054;51.978;4.498;2022-11-20T03:21:19;101326.13;;;0.61;94.80
69784;BME280;57054;51.978;4.498;2022-11-20T03:23:44;101326.13;;;0.61;94.73
69784;BME280;57054;51.978;4.498;2022-11-20T03:28:41;101320.09;;;0.59;94.84
69784;BME280;57054;51.978;4.498;2022-11-20T03:31:08;101326.09;;;0.57;94.87
69784;BME280;57054;51.978;4.498;2022-11-20T03:33:34;101324.38;;;0.56;94.99
69784;BME280;57054;51.978;4.498;2022-11-20T03:36:07;101316.63;;;0.56;95.08
69784;BME280;57054;51.978;4.498;2022-11-20T03:38:32;101317.47;;;0.55;95.07
69784;BME280;57054;51.978;4.498;2022-11-20T03:40:59;101321.78;;;0.55;95.00
69784;BME280;57054;51.978;4.498;2022-11-20T03:43:25;101318.31;;;0.54;95.15
69784;BME280;57054;51.978;4.498;2022-11-20T03:45:50;101311.47;;;0.55;95.23
69784;BME280;57054;51.978;4.498;2022-11-20T03:48:16;101313.19;;;0.53;95.41
69784;BME280;57054;51.978;4.498;2022-11-20T03:50:41;101313.16;;;0.51;95.42
69784;BME280;57054;51.978;4.498;2022-11-20T03:53:06;101314.00;;;0.50;95.37
69784;BME280;57054;51.978;4.498;2022-11-20T03:55:31;101307.13;;;0.49;95.47
69784;BME280;57054;51.978;4.498;2022-11-20T03:57:57;101297.66;;;0.48;95.42
69784;BME280;57054;51.978;4.498;2022-11-20T04:00:22;101288.19;;;0.47;95.44
69784;BME280;57054;51.978;4.498;2022-11-20T04:02:47;101283.03;;;0.46;95.46
69784;BME280;57054;51.978;4.498;2022-11-20T04:05:13;101278.72;;;0.45;95.43
69784;BME280;57054;51.978;4.498;2022-11-20T04:07:38;101277.00;;;0.44;95.38
69784;BME280;57054;51.978;4.498;2022-11-20T04:10:03;101274.44;;;0.42;95.44
69784;BME280;57054;51.978;4.498;2022-11-20T04:12:33;101273.53;;;0.42;95.52
69784;BME280;57054;51.978;4.498;2022-11-20T04:14:58;101268.41;;;0.40;95.75
69784;BME280;57054;51.978;4.498;2022-11-20T04:17:24;101258.94;;;0.41;95.55
69784;BME280;57054;51.978;4.498;2022-11-20T04:19:49;101260.66;;;0.40;95.83
69784;BME280;57054;51.978;4.498;2022-11-20T04:22:15;101255.50;;;0.38;95.69
69784;BME280;57054;51.978;4.498;2022-11-20T04:24:40;101257.19;;;0.38;95.87
69784;BME280;57054;51.978;4.498;2022-11-20T04:27:05;101254.63;;;0.38;95.81
69784;BME280;57054;51.978;4.498;2022-11-20T04:29:30;101259.78;;;0.38;95.87
69784;BME280;57054;51.978;4.498;2022-11-20T04:31:56;101266.66;;;0.37;96.06
69784;BME280;57054;51.978;4.498;2022-11-20T04:34:21;101263.22;;;0.37;95.88
69784;BME280;57054;51.978;4.498;2022-11-20T04:36:46;101263.19;;;0.35;96.02
69784;BME280;57054;51.978;4.498;2022-11-20T04:39:13;101260.63;;;0.35;96.06
69784;BME280;57054;51.978;4.498;2022-11-20T04:41:39;101264.91;;;0.35;96.14
69784;BME280;57054;51.978;4.498;2022-11-20T04:44:04;101265.75;;;0.34;96.17
69784;BME280;57054;51.978;4.498;2022-11-20T04:46:34;101270.91;;;0.34;96.21
69784;BME280;57054;51.978;4.498;2022-11-20T04:49:00;101269.19;;;0.33;96.37
69784;BME280;57054;51.978;4.498;2022-11-20T04:51:25;101266.63;;;0.33;96.44
69784;BME280;57054;51.978;4.498;2022-11-20T04:53:51;101250.28;;;0.32;96.44
69784;BME280;57054;51.978;4.498;2022-11-20T04:56:16;101258.00;;;0.32;96.45
69784;BME280;57054;51.978;4.498;2022-11-20T04:58:41;101256.28;;;0.30;96.50
69784;BME280;57054;51.978;4.498;2022-11-20T05:01:08;101249.38;;;0.29;96.49
69784;BME280;57054;51.978;4.498;2022-11-20T05:03:34;101253.72;;;0.30;96.48
69784;BME280;57054;51.978;4.498;2022-11-20T05:06:00;101248.53;;;0.27;96.49
69784;BME280;57054;51.978;4.498;2022-11-20T05:08:26;101250.25;;;0.26;96.49
69784;BME280;57054;51.978;4.498;2022-11-20T05:10:51;101257.94;;;0.25;96.52
69784;BME280;57054;51.978;4.498;2022-11-20T05:13:16;101257.06;;;0.23;96.52
69784;BME280;57054;51.978;4.498;2022-11-20T05:15:42;101263.06;;;0.22;96.48
69784;BME280;57054;51.978;4.498;2022-11-20T05:18:07;101265.66;;;0.22;96.67
69784;BME280;57054;51.978;4.498;2022-11-20T05:20:32;101274.25;;;0.21;96.48
69784;BME280;57054;51.978;4.498;2022-11-20T05:22:58;101269.06;;;0.19;96.60
69784;BME280;57054;51.978;4.498;2022-11-20T05:25:23;101263.91;;;0.19;96.57
69784;BME280;57054;51.978;4.498;2022-11-20T05:27:49;101259.59;;;0.18;96.69
69784;BME280;57054;51.978;4.498;2022-11-20T05:30:14;101261.31;;;0.17;96.84
69784;BME280;57054;51.978;4.498;2022-11-20T05:32:39;101258.72;;;0.16;96.59
69784;BME280;57054;51.978;4.498;2022-11-20T05:35:05;101266.47;;;0.16;96.86
69784;BME280;57054;51.978;4.498;2022-11-20T05:37:30;101252.72;;;0.15;96.85
69784;BME280;57054;51.978;4.498;2022-11-20T05:39:55;101262.19;;;0.16;96.82
69784;BME280;57054;51.978;4.498;2022-11-20T05:42:21;101256.16;;;0.16;96.96
69784;BME280;57054;51.978;4.498;2022-11-20T05:44:55;101240.69;;;0.16;96.96
69784;BME280;57054;51.978;4.498;2022-11-20T05:47:21;101231.25;;;0.15;97.03
69784;BME280;57054;51.978;4.498;2022-11-20T05:49:46;101232.13;;;0.15;97.04
69784;BME280;57054;51.978;4.498;2022-11-20T05:52:11;101231.25;;;0.15;97.10
69784;BME280;57054;51.978;4.498;2022-11-20T05:54:36;101234.69;;;0.15;97.29
69784;BME280;57054;51.978;4.498;2022-11-20T05:57:02;101232.13;;;0.15;97.35
69784;BME280;57054;51.978;4.498;2022-11-20T05:59:27;101226.97;;;0.15;97.34
69784;BME280;57054;51.978;4.498;2022-11-20T06:01:52;101224.38;;;0.15;97.28
69784;BME280;57054;51.978;4.498;2022-11-20T06:04:17;101210.63;;;0.13;97.36
69784;BME280;57054;51.978;4.498;2022-11-20T06:06:43;101217.50;;;0.14;97.53
69784;BME280;57054;51.978;4.498;2022-11-20T06:09:08;101203.75;;;0.14;97.50
69784;BME280;57054;51.978;4.498;2022-11-20T06:11:33;101206.31;;;0.12;97.51
69784;BME280;57054;51.978;4.498;2022-11-20T06:13:59;101202.91;;;0.12;97.61
69784;BME280;57054;51.978;4.498;2022-11-20T06:16:24;101200.31;;;0.12;97.63
69784;BME280;57054;51.978;4.498;2022-11-20T06:18:49;101200.31;;;0.12;97.66
69784;BME280;57054;51.978;4.498;2022-11-20T06:21:16;101199.47;;;0.13;97.74
69784;BME280;57054;51.978;4.498;2022-11-20T06:23:41;101203.75;;;0.14;97.72
69784;BME280;57054;51.978;4.498;2022-11-20T06:26:08;101192.59;;;0.12;97.92
69784;BME280;57054;51.978;4.498;2022-11-20T06:28:33;101196.91;;;0.13;98.03
69784;BME280;57054;51.978;4.498;2022-11-20T06:30:59;101194.34;;;0.13;97.95
69784;BME280;57054;51.978;4.498;2022-11-20T06:33:24;101196.91;;;0.13;98.10
69784;BME280;57054;51.978;4.498;2022-11-20T06:35:50;101192.59;;;0.12;97.93
69784;BME280;57054;51.978;4.498;2022-11-20T06:38:15;101191.75;;;0.13;98.03
69784;BME280;57054;51.978;4.498;2022-11-20T06:40:41;101196.91;;;0.13;98.21
69784;BME280;57054;51.978;4.498;2022-11-20T06:43:06;101202.91;;;0.13;98.14
69784;BME280;57054;51.978;4.498;2022-11-20T06:45:32;101199.47;;;0.13;98.24
69784;BME280;57054;51.978;4.498;2022-11-20T06:47:57;101201.19;;;0.14;98.26
69784;BME280;57054;51.978;4.498;2022-11-20T06:50:23;101190.88;;;0.14;98.34
69784;BME280;57054;51.978;4.498;2022-11-20T06:52:48;101195.19;;;0.15;98.43
69784;BME280;57054;51.978;4.498;2022-11-20T06:55:13;101190.91;;;0.15;98.49
69784;BME280;57054;51.978;4.498;2022-11-20T06:57:38;101183.19;;;0.15;98.63
69784;BME280;57054;51.978;4.498;2022-11-20T07:00:04;101184.91;;;0.16;98.54
69784;BME280;57054;51.978;4.498;2022-11-20T07:02:29;101184.06;;;0.17;98.73
69784;BME280;57054;51.978;4.498;2022-11-20T07:04:54;101178.06;;;0.18;98.91
69784;BME280;57054;51.978;4.498;2022-11-20T07:07:20;101190.06;;;0.19;98.92
69784;BME280;57054;51.978;4.498;2022-11-20T07:09:45;101184.09;;;0.21;99.16
69784;BME280;57054;51.978;4.498;2022-11-20T07:12:10;101179.78;;;0.21;99.13
69784;BME280;57054;51.978;4.498;2022-11-20T07:14:36;101173.78;;;0.22;99.32
69784;BME280;57054;51.978;4.498;2022-11-20T07:17:01;101179.81;;;0.23;99.35
69784;BME280;57054;51.978;4.498;2022-11-20T07:19:26;101193.53;;;0.25;99.32
69784;BME280;57054;51.978;4.498;2022-11-20T07:21:51;101188.41;;;0.25;99.38
69784;BME280;57054;51.978;4.498;2022-11-20T07:24:17;101196.13;;;0.26;99.53
69784;BME280;57054;51.978;4.498;2022-11-20T07:26:42;101197.00;;;0.28;99.65
69784;BME280;57054;51.978;4.498;2022-11-20T07:29:07;101184.97;;;0.29;99.55
69784;BME280;57054;51.978;4.498;2022-11-20T07:31:32;101179.84;;;0.30;99.60
69784;BME280;57054;51.978;4.498;2022-11-20T07:34:00;101180.69;;;0.31;99.78
69784;BME280;57054;51.978;4.498;2022-11-20T07:36:25;101185.88;;;0.32;99.70
69784;BME280;57054;51.978;4.498;2022-11-20T07:38:50;101185.03;;;0.33;99.74
69784;BME280;57054;51.978;4.498;2022-11-20T07:41:16;101185.88;;;0.34;99.92
69784;BME280;57054;51.978;4.498;2022-11-20T07:43:41;101189.31;;;0.36;99.92
69784;BME280;57054;51.978;4.498;2022-11-20T07:46:06;101194.47;;;0.36;100.00
69784;BME280;57054;51.978;4.498;2022-11-20T07:48:31;101198.81;;;0.38;100.00
69784;BME280;57054;51.978;4.498;2022-11-20T07:50:57;101194.50;;;0.39;100.00
69784;BME280;57054;51.978;4.498;2022-11-20T07:53:23;101193.66;;;0.42;100.00
69784;BME280;57054;51.978;4.498;2022-11-20T07:55:48;101195.41;;;0.43;100.00
69784;BME280;57054;51.978;4.498;2022-11-20T07:58:14;101193.66;;;0.43;100.00
69784;BME280;57054;51.978;4.498;2022-11-20T08:00:39;101191.94;;;0.44;100.00
69784;BME280;57054;51.978;4.498;2022-11-20T08:03:05;101185.13;;;0.46;100.00
69784;BME280;57054;51.978;4.498;2022-11-20T08:05:30;101182.53;;;0.47;100.00
69784;BME280;57054;51.978;4.498;2022-11-20T08:07:56;101182.53;;;0.49;100.00
69784;BME280;57054;51.978;4.498;2022-11-20T08:10:21;101178.25;;;0.51;100.00
69784;BME280;57054;51.978;4.498;2022-11-20T08:12:47;101178.28;;;0.52;100.00
69784;BME280;57054;51.978;4.498;2022-11-20T08:15:31;101174.88;;;0.55;100.00
69784;BME280;57054;51.978;4.498;2022-11-20T08:18:07;101170.56;;;0.57;100.00
69784;BME280;57054;51.978;4.498;2022-11-20T08:20:33;101166.28;;;0.57;100.00
69784;BME280;57054;51.978;4.498;2022-11-20T08:23:02;101162.88;;;0.60;100.00
69784;BME280;57054;51.978;4.498;2022-11-20T08:25:28;101168.00;;;0.62;100.00
69784;BME280;57054;51.978;4.498;2022-11-20T08:27:56;101169.75;;;0.63;100.00
69784;BME280;57054;51.978;4.498;2022-11-20T08:30:21;101168.88;;;0.64;100.00
69784;BME280;57054;51.978;4.498;2022-11-20T08:32:46;101163.75;;;0.67;100.00
69784;BME280;57054;51.978;4.498;2022-11-20T08:35:12;101167.19;;;0.69;100.00
69784;BME280;57054;51.978;4.498;2022-11-20T08:37:37;101174.09;;;0.70;100.00
69784;BME280;57054;51.978;4.498;2022-11-20T08:40:06;101173.22;;;0.71;100.00
69784;BME280;57054;51.978;4.498;2022-11-20T08:42:31;101168.94;;;0.73;100.00
69784;BME280;57054;51.978;4.498;2022-11-20T08:44:57;101165.50;;;0.74;100.00
69784;BME280;57054;51.978;4.498;2022-11-20T08:47:22;101174.09;;;0.76;100.00
69784;BME280;57054;51.978;4.498;2022-11-20T08:49:47;101174.97;;;0.78;100.00
69784;BME280;57054;51.978;4.498;2022-11-20T08:52:12;101169.81;;;0.78;100.00
69784;BME280;57054;51.978;4.498;2022-11-20T08:54:38;101166.41;;;0.81;100.00
69784;BME280;57054;51.978;4.498;2022-11-20T08:57:03;101167.25;;;0.81;100.00
69784;BME280;57054;51.978;4.498;2022-11-20T08:59:28;101168.13;;;0.83;100.00
69784;BME280;57054;51.978;4.498;2022-11-20T09:01:54;101159.53;;;0.84;100.00
69784;BME280;57054;51.978;4.498;2022-11-20T09:04:20;101155.25;;;0.86;100.00
69784;BME280;57054;51.978;4.498;2022-11-20T09:06:45;101146.66;;;0.89;100.00
69784;BME280;57054;51.978;4.498;2022-11-20T09:09:10;101146.66;;;0.90;100.00
69784;BME280;57054;51.978;4.498;2022-11-20T09:11:36;101147.53;;;0.91;100.00
69784;BME280;57054;51.978;4.498;2022-11-20T09:14:01;101147.53;;;0.94;100.00
69784;BME280;57054;51.978;4.498;2022-11-20T09:16:27;101143.22;;;0.94;100.00
69784;BME280;57054;51.978;4.498;2022-11-20T09:18:52;101142.41;;;0.97;100.00
69784;BME280;57054;51.978;4.498;2022-11-20T09:21:18;101140.69;;;1.01;100.00
69784;BME280;57054;51.978;4.498;2022-11-20T09:23:43;101136.41;;;1.03;100.00
69784;BME280;57054;51.978;4.498;2022-11-20T09:26:09;101132.97;;;1.04;100.00
69784;BME280;57054;51.978;4.498;2022-11-20T09:28:35;101128.69;;;1.06;100.00
69784;BME280;57054;51.978;4.498;2022-11-20T09:31:00;101121.81;;;1.08;100.00
69784;BME280;57054;51.978;4.498;2022-11-20T09:33:29;101109.78;;;1.10;100.00
69784;BME280;57054;51.978;4.498;2022-11-20T09:35:54;101105.47;;;1.12;100.00
69784;BME280;57054;51.978;4.498;2022-11-20T09:38:20;101103.75;;;1.12;100.00
69784;BME280;57054;51.978;4.498;2022-11-20T09:40:47;101096.88;;;1.14;100.00
69784;BME280;57054;51.978;4.498;2022-11-20T09:43:17;101085.69;;;1.15;100.00
69784;BME280;57054;51.978;4.498;2022-11-20T09:54:08;101078.84;;;1.25;100.00
69784;BME280;57054;51.978;4.498;2022-11-20T09:56:41;101074.53;;;1.27;100.00
69784;BME280;57054;51.978;4.498;2022-11-20T09:59:18;101063.38;;;1.28;100.00
69784;BME280;57054;51.978;4.498;2022-11-20T10:01:46;101068.53;;;1.31;100.00
69784;BME280;57054;51.978;4.498;2022-11-20T10:04:19;101059.91;;;1.32;100.00
69784;BME280;57054;51.978;4.498;2022-11-20T10:06:47;101051.34;;;1.33;100.00
69784;BME280;57054;51.978;4.498;2022-11-20T10:09:40;101046.19;;;1.37;100.00
69784;BME280;57054;51.978;4.498;2022-11-20T10:20:29;101016.91;;;1.38;100.00
69784;BME280;57054;51.978;4.498;2022-11-20T10:25:28;100999.72;;;1.40;100.00
69784;BME280;57054;51.978;4.498;2022-11-20T10:27:58;101003.16;;;1.42;100.00
69784;BME280;57054;51.978;4.498;2022-11-20T10:30:28;100998.88;;;1.44;100.00
69784;BME280;57054;51.978;4.498;2022-11-20T10:32:57;100999.69;;;1.47;100.00
69784;BME280;57054;51.978;4.498;2022-11-20T10:35:26;100996.28;;;1.50;100.00
69784;BME280;57054;51.978;4.498;2022-11-20T10:38:06;100979.91;;;1.52;100.00
69784;BME280;57054;51.978;4.498;2022-11-20T10:40:35;100973.91;;;1.55;100.00
69784;BME280;57054;51.978;4.498;2022-11-20T10:43:07;100985.09;;;1.59;100.00
69784;BME280;57054;51.978;4.498;2022-11-20T10:45:44;100982.47;;;1.62;100.00
69784;BME280;57054;51.978;4.498;2022-11-20T10:48:14;100985.91;;;1.65;100.00
69784;BME280;57054;51.978;4.498;2022-11-20T10:50:44;100981.63;;;1.67;100.00
69784;BME280;57054;51.978;4.498;2022-11-20T10:55:58;100957.50;;;1.75;100.00
69784;BME280;57054;51.978;4.498;2022-11-20T10:58:42;100954.06;;;1.77;100.00
69784;BME280;57054;51.978;4.498;2022-11-20T11:01:17;100941.16;;;1.79;100.00
69784;BME280;57054;51.978;4.498;2022-11-20T11:03:43;100938.53;;;1.82;100.00
69784;BME280;57054;51.978;4.498;2022-11-20T11:08:53;100929.94;;;1.86;100.00
69784;BME280;57054;51.978;4.498;2022-11-20T11:11:21;100930.78;;;1.86;100.00
69784;BME280;57054;51.978;4.498;2022-11-20T11:13:47;100927.31;;;1.89;100.00
69784;BME280;57054;51.978;4.498;2022-11-20T11:16:23;100917.84;;;1.91;100.00
69784;BME280;57054;51.978;4.498;2022-11-20T11:18:48;100906.66;;;1.94;100.00
69784;BME280;57054;51.978;4.498;2022-11-20T11:21:19;100903.19;;;1.95;100.00
69784;BME280;57054;51.978;4.498;2022-11-20T11:23:46;100897.16;;;1.97;100.00
69784;BME280;57054;51.978;4.498;2022-11-20T11:26:18;100898.88;;;1.98;100.00
69784;BME280;57054;51.978;4.498;2022-11-20T11:31:23;100871.31;;;2.02;100.00
69784;BME280;57054;51.978;4.498;2022-11-20T11:33:48;100863.53;;;2.03;100.00
69784;BME280;57054;51.978;4.498;2022-11-20T11:36:21;100853.22;;;2.05;100.00
69784;BME280;57054;51.978;4.498;2022-11-20T11:38:48;100832.53;;;2.05;100.00
69784;BME280;57054;51.978;4.498;2022-11-20T11:41:20;100820.47;;;2.05;100.00
69784;BME280;57054;51.978;4.498;2022-11-20T11:43:58;100810.13;;;2.05;100.00
69784;BME280;57054;51.978;4.498;2022-11-20T11:46:44;100807.56;;;2.05;100.00
69784;BME280;57054;51.978;4.498;2022-11-20T11:49:18;100808.44;;;2.07;100.00
69784;BME280;57054;51.978;4.498;2022-11-20T11:54:24;100801.47;;;2.13;100.00
69784;BME280;57054;51.978;4.498;2022-11-20T11:56:50;100802.31;;;2.16;100.00
69784;BME280;57054;51.978;4.498;2022-11-20T11:59:21;100810.91;;;2.20;100.00
69784;BME280;57054;51.978;4.498;2022-11-20T12:01:53;100811.75;;;2.23;100.00
69784;BME280;57054;51.978;4.498;2022-11-20T12:07:01;100801.38;;;2.31;100.00
69784;BME280;57054;51.978;4.498;2022-11-20T12:09:33;100793.59;;;2.34;100.00
69784;BME280;57054;51.978;4.498;2022-11-20T12:12:04;100788.41;;;2.37;100.00
69784;BME280;57054;51.978;4.498;2022-11-20T12:14:35;100782.34;;;2.40;100.00
69784;BME280;57054;51.978;4.498;2022-11-20T12:17:02;100784.06;;;2.42;100.00
69784;BME280;57054;51.978;4.498;2022-11-20T12:19:31;100781.44;;;2.45;100.00
69784;BME280;57054;51.978;4.498;2022-11-20T12:35:00;100752.06;;;2.56;100.00
69784;BME280;57054;51.978;4.498;2022-11-20T12:40:18;100745.13;;;2.59;100.00
69784;BME280;57054;51.978;4.498;2022-11-20T12:43:04;100722.69;;;2.61;100.00
69784;BME280;57054;51.978;4.498;2022-11-20T12:53:45;100714.03;;;2.67;100.00
69784;BME280;57054;51.978;4.498;2022-11-20T12:59:07;100695.03;;;2.71;100.00
69784;BME280;57054;51.978;4.498;2022-11-20T13:04:23;100689.81;;;2.76;100.00
69784;BME280;57054;51.978;4.498;2022-11-20T13:06:56;100683.78;;;2.75;100.00
69784;BME280;57054;51.978;4.498;2022-11-20T13:09:21;100684.63;;;2.77;100.00
69784;BME280;57054;51.978;4.498;2022-11-20T13:11:50;100678.56;;;2.78;100.00
69784;BME280;57054;51.978;4.498;2022-11-20T13:19:21;100676.78;;;2.83;100.00
69784;BME280;57054;51.978;4.498;2022-11-20T13:21:47;100669.00;;;2.85;100.00
69784;BME280;57054;51.978;4.498;2022-11-20T13:27:05;100665.47;;;2.91;100.00
69784;BME280;57054;51.978;4.498;2022-11-20T13:29:42;100666.31;;;2.93;100.00
69784;BME280;57054;51.978;4.498;2022-11-20T13:32:13;100655.09;;;2.95;100.00
69784;BME280;57054;51.978;4.498;2022-11-20T13:34:50;100650.78;;;2.96;100.00
69784;BME280;57054;51.978;4.498;2022-11-20T13:37:36;100649.03;;;2.96;100.00
69784;BME280;57054;51.978;4.498;2022-11-20T13:40:21;100638.66;;;2.98;100.00
69784;BME280;57054;51.978;4.498;2022-11-20T13:43:01;100633.50;;;2.98;100.00
69784;BME280;57054;51.978;4.498;2022-11-20T13:45:28;100628.31;;;2.98;100.00
69784;BME280;57054;51.978;4.498;2022-11-20T13:48:04;100634.34;;;2.98;100.00
69784;BME280;57054;51.978;4.498;2022-11-20T13:50:38;100622.28;;;2.99;100.00
69784;BME280;57054;51.978;4.498;2022-11-20T13:55:47;100592.94;;;2.98;100.00
69784;BME280;57054;51.978;4.498;2022-11-20T13:58:24;100592.13;;;2.96;100.00
69784;BME280;57054;51.978;4.498;2022-11-20T14:00:57;100587.81;;;2.97;100.00
69784;BME280;57054;51.978;4.498;2022-11-20T14:03:25;100582.66;;;2.95;100.00
69784;BME280;57054;51.978;4.498;2022-11-20T14:05:59;100566.25;;;2.95;100.00
69784;BME280;57054;51.978;4.498;2022-11-20T14:13:57;100546.47;;;2.92;100.00
69784;BME280;57054;51.978;4.498;2022-11-20T14:16:23;100537.88;;;2.92;100.00
69784;BME280;57054;51.978;4.498;2022-11-20T14:18:48;100530.97;;;2.91;100.00
69784;BME280;57054;51.978;4.498;2022-11-20T14:21:27;100530.13;;;2.90;100.00
69784;BME280;57054;51.978;4.498;2022-11-20T14:23:54;100531.00;;;2.89;100.00
69784;BME280;57054;51.978;4.498;2022-11-20T14:26:19;100528.41;;;2.89;100.00